sensor_id;sensor_type;location;lat;lon;timestamp;pressure;altitude;pressure_sealevel;temperature;humidity
47430;BME280;33181;49.246;7.372;2023-04-29T00:00:00;98536.09;;;12.91;97.77
47430;BME280;33181;49.246;7.372;2023-04-29T00:02:26;98534.97;;;12.94;99.02
47430;BME280;33181;49.246;7.372;2023-04-29T00:04:53;98537.88;;;13.01;99.03
47430;BME280;33181;49.246;7.372;2023-04-29T00:07:19;98536.88;;;13.02;99.27
47430;BME280;33181;49.246;7.372;2023-04-29T00:09:44;98538.56;;;13.03;99.32
47430;BME280;33181;49.246;7.372;2023-04-29T00:12:10;98543.41;;;13.07;98.74
47430;BME280;33181;49.246;7.372;2023-04-29T00:14:37;98538.81;;;13.09;98.17
47430;BME280;33181;49.246;7.372;2023-04-29T00:17:03;98542.56;;;13.07;97.85
47430;BME280;33181;49.246;7.372;2023-04-29T00:19:28;98539.94;;;13.07;97.81
47430;BME280;33181;49.246;7.372;2023-04-29T00:21:54;98538.13;;;13.07;97.67
47430;BME280;33181;49.246;7.372;2023-04-29T00:24:20;98545.38;;;13.05;97.41
47430;BME280;33181;49.246;7.372;2023-04-29T00:26:46;98547.16;;;13.05;96.27
47430;BME280;33181;49.246;7.372;2023-04-29T00:29:12;98553.59;;;12.83;96.91
47430;BME280;33181;49.246;7.372;2023-04-29T00:31:37;98551.25;;;12.80;98.59
47430;BME280;33181;49.246;7.372;2023-04-29T00:34:03;98548.31;;;12.83;98.18
47430;BME280;33181;49.246;7.372;2023-04-29T00:36:29;98558.75;;;12.84;97.81
47430;BME280;33181;49.246;7.372;2023-04-29T00:38:57;98555.56;;;12.81;97.20
47430;BME280;33181;49.246;7.372;2023-04-29T00:41:23;98553.06;;;12.79;97.34
47430;BME280;33181;49.246;7.372;2023-04-29T00:43:50;98560.84;;;12.81;97.14
47430;BME280;33181;49.246;7.372;2023-04-29T00:46:17;98559.16;;;12.80;96.43
47430;BME280;33181;49.246;7.372;2023-04-29T00:48:43;98559.72;;;12.73;96.35
47430;BME280;33181;49.246;7.372;2023-04-29T00:51:09;98559.19;;;12.70;96.52
47430;BME280;33181;49.246;7.372;2023-04-29T00:53:36;98563.91;;;12.66;96.47
47430;BME280;33181;49.246;7.372;2023-04-29T00:56:02;98565.88;;;12.64;97.34
47430;BME280;33181;49.246;7.372;2023-04-29T00:58:29;98565.88;;;12.64;97.00
47430;BME280;33181;49.246;7.372;2023-04-29T01:01:03;98567.53;;;12.56;97.87
47430;BME280;33181;49.246;7.372;2023-04-29T01:03:30;98566.72;;;12.55;98.65
47430;BME280;33181;49.246;7.372;2023-04-29T01:06:07;98561.19;;;12.48;99.21
47430;BME280;33181;49.246;7.372;2023-04-29T01:12:12;98571.97;;;12.36;99.17
47430;BME280;33181;49.246;7.372;2023-04-29T01:14:40;98570.88;;;12.28;99.54
47430;BME280;33181;49.246;7.372;2023-04-29T01:17:14;98577.25;;;12.36;98.96
47430;BME280;33181;49.246;7.372;2023-04-29T01:19:56;98575.31;;;12.38;98.55
47430;BME280;33181;49.246;7.372;2023-04-29T01:22:23;98579.06;;;12.35;98.75
47430;BME280;33181;49.246;7.372;2023-04-29T01:24:49;98569.94;;;12.29;98.28
47430;BME280;33181;49.246;7.372;2023-04-29T01:27:36;98583.91;;;12.30;98.04
47430;BME280;33181;49.246;7.372;2023-04-29T01:33:09;98586.41;;;12.32;97.14
47430;BME280;33181;49.246;7.372;2023-04-29T01:41:39;98592.50;;;12.32;95.64
47430;BME280;33181;49.246;7.372;2023-04-29T01:44:09;98587.38;;;12.31;95.83
47430;BME280;33181;49.246;7.372;2023-04-29T01:46:38;98589.31;;;12.28;95.58
47430;BME280;33181;49.246;7.372;2023-04-29T01:49:06;98584.88;;;12.19;95.66
47430;BME280;33181;49.246;7.372;2023-04-29T01:51:32;98590.00;;;12.21;95.52
47430;BME280;33181;49.246;7.372;2023-04-29T01:53:59;98593.03;;;12.26;95.00
47430;BME280;33181;49.246;7.372;2023-04-29T01:56:25;98595.28;;;12.21;95.00
47430;BME280;33181;49.246;7.372;2023-04-29T01:58:50;98600.66;;;12.19;94.80
47430;BME280;33181;49.246;7.372;2023-04-29T02:01:16;98606.91;;;12.09;95.29
47430;BME280;33181;49.246;7.372;2023-04-29T02:03:42;98596.38;;;12.09;95.29
47430;BME280;33181;49.246;7.372;2023-04-29T02:06:08;98601.75;;;12.07;94.73
47430;BME280;33181;49.246;7.372;2023-04-29T02:08:33;98597.75;;;12.13;94.87
47430;BME280;33181;49.246;7.372;2023-04-29T02:10:59;98603.19;;;12.11;94.35
47430;BME280;33181;49.246;7.372;2023-04-29T02:13:25;98596.94;;;12.12;94.14
47430;BME280;33181;49.246;7.372;2023-04-29T02:15:51;98600.28;;;12.14;93.92
47430;BME280;33181;49.246;7.372;2023-04-29T02:18:17;98600.13;;;12.16;93.74
47430;BME280;33181;49.246;7.372;2023-04-29T02:20:43;98600.94;;;12.16;93.19
47430;BME280;33181;49.246;7.372;2023-04-29T02:23:09;98596.66;;;12.15;93.03
47430;BME280;33181;49.246;7.372;2023-04-29T02:25:35;98600.28;;;12.14;92.93
47430;BME280;33181;49.246;7.372;2023-04-29T02:28:01;98601.50;;;12.10;92.71
47430;BME280;33181;49.246;7.372;2023-04-29T02:30:27;98602.19;;;12.12;92.46
47430;BME280;33181;49.246;7.372;2023-04-29T02:32:53;98602.75;;;12.16;91.71
47430;BME280;33181;49.246;7.372;2023-04-29T02:35:19;98608.16;;;12.04;91.94
47430;BME280;33181;49.246;7.372;2023-04-29T02:37:46;98612.81;;;11.91;92.78
47430;BME280;33181;49.246;7.372;2023-04-29T02:40:12;98614.31;;;11.84;93.24
47430;BME280;33181;49.246;7.372;2023-04-29T02:42:38;98614.47;;;11.82;93.47
47430;BME280;33181;49.246;7.372;2023-04-29T02:45:04;98610.56;;;11.77;93.82
47430;BME280;33181;49.246;7.372;2023-04-29T02:47:30;98606.75;;;11.60;94.83
47430;BME280;33181;49.246;7.372;2023-04-29T02:49:56;98607.16;;;11.55;95.28
47430;BME280;33181;49.246;7.372;2023-04-29T02:52:22;98616.25;;;11.42;96.36
47430;BME280;33181;49.246;7.372;2023-04-29T02:54:48;98611.84;;;11.42;96.06
47430;BME280;33181;49.246;7.372;2023-04-29T02:57:14;98608.97;;;11.55;95.14
47430;BME280;33181;49.246;7.372;2023-04-29T02:59:39;98619.06;;;11.59;94.78
47430;BME280;33181;49.246;7.372;2023-04-29T03:02:06;98622.84;;;11.57;93.94
47430;BME280;33181;49.246;7.372;2023-04-29T03:04:32;98615.50;;;11.60;93.39
47430;BME280;33181;49.246;7.372;2023-04-29T03:06:57;98613.56;;;11.63;92.84
47430;BME280;33181;49.246;7.372;2023-04-29T03:09:23;98621.16;;;11.56;93.43
47430;BME280;33181;49.246;7.372;2023-04-29T03:11:49;98621.81;;;11.48;94.23
47430;BME280;33181;49.246;7.372;2023-04-29T03:14:15;98613.63;;;11.42;94.94
47430;BME280;33181;49.246;7.372;2023-04-29T03:16:41;98624.41;;;11.39;94.96
47430;BME280;33181;49.246;7.372;2023-04-29T03:19:07;98620.66;;;11.41;95.27
47430;BME280;33181;49.246;7.372;2023-04-29T03:21:33;98622.63;;;11.39;94.64
47430;BME280;33181;49.246;7.372;2023-04-29T03:23:59;98621.25;;;11.45;94.21
47430;BME280;33181;49.246;7.372;2023-04-29T03:26:25;98624.69;;;11.35;94.44
47430;BME280;33181;49.246;7.372;2023-04-29T03:28:51;98622.16;;;11.34;95.27
47430;BME280;33181;49.246;7.372;2023-04-29T03:31:17;98620.66;;;11.41;94.61
47430;BME280;33181;49.246;7.372;2023-04-29T03:33:45;98625.66;;;11.44;94.09
47430;BME280;33181;49.246;7.372;2023-04-29T03:36:11;98627.19;;;11.47;93.19
47430;BME280;33181;49.246;7.372;2023-04-29T03:38:37;98623.19;;;11.43;92.55
47430;BME280;33181;49.246;7.372;2023-04-29T03:41:04;98626.53;;;11.45;92.55
47430;BME280;33181;49.246;7.372;2023-04-29T03:43:30;98629.97;;;11.45;92.20
47430;BME280;33181;49.246;7.372;2023-04-29T03:45:56;98622.34;;;11.42;91.73
47430;BME280;33181;49.246;7.372;2023-04-29T03:48:21;98629.53;;;11.40;91.07
47430;BME280;33181;49.246;7.372;2023-04-29T03:50:47;98616.91;;;11.34;90.80
47430;BME280;33181;49.246;7.372;2023-04-29T03:53:13;98624.63;;;11.26;90.60
47430;BME280;33181;49.246;7.372;2023-04-29T03:55:39;98627.53;;;11.23;90.97
47430;BME280;33181;49.246;7.372;2023-04-29T03:58:05;98632.78;;;11.23;90.79
47430;BME280;33181;49.246;7.372;2023-04-29T04:00:31;98628.47;;;11.22;90.54
47430;BME280;33181;49.246;7.372;2023-04-29T04:02:57;98631.75;;;11.14;89.97
47430;BME280;33181;49.246;7.372;2023-04-29T04:05:24;98638.25;;;11.10;90.04
47430;BME280;33181;49.246;7.372;2023-04-29T04:07:53;98631.72;;;11.04;90.27
47430;BME280;33181;49.246;7.372;2023-04-29T04:10:19;98647.75;;;11.01;90.49
47430;BME280;33181;49.246;7.372;2023-04-29T04:12:45;98649.81;;;10.98;90.65
47430;BME280;33181;49.246;7.372;2023-04-29T04:15:14;98639.09;;;10.89;90.43
47430;BME280;33181;49.246;7.372;2023-04-29T04:17:41;98650.50;;;10.79;91.43
47430;BME280;33181;49.246;7.372;2023-04-29T04:20:08;98658.75;;;10.74;91.64
47430;BME280;33181;49.246;7.372;2023-04-29T04:22:34;98668.69;;;10.71;93.03
47430;BME280;33181;49.246;7.372;2023-04-29T04:25:00;98672.13;;;10.71;93.77
47430;BME280;33181;49.246;7.372;2023-04-29T04:27:26;98670.81;;;10.77;93.14
47430;BME280;33181;49.246;7.372;2023-04-29T04:29:55;98672.47;;;10.78;93.00
47430;BME280;33181;49.246;7.372;2023-04-29T04:32:21;98675.69;;;10.81;92.80
47430;BME280;33181;49.246;7.372;2023-04-29T04:34:49;98684.16;;;10.85;92.61
47430;BME280;33181;49.246;7.372;2023-04-29T04:37:15;98690.91;;;10.87;92.67
47430;BME280;33181;49.246;7.372;2023-04-29T04:39:42;98683.44;;;11.04;93.40
47430;BME280;33181;49.246;7.372;2023-04-29T04:42:08;98686.50;;;11.51;92.51
47430;BME280;33181;49.246;7.372;2023-04-29T04:44:33;98690.16;;;11.69;90.94
47430;BME280;33181;49.246;7.372;2023-04-29T04:46:59;98691.28;;;11.67;90.34
47430;BME280;33181;49.246;7.372;2023-04-29T04:49:28;98692.31;;;11.54;90.88
47430;BME280;33181;49.246;7.372;2023-04-29T04:51:54;98685.97;;;11.57;91.14
47430;BME280;33181;49.246;7.372;2023-04-29T04:54:20;98687.88;;;11.55;91.28
47430;BME280;33181;49.246;7.372;2023-04-29T04:56:45;98689.44;;;11.98;91.09
47430;BME280;33181;49.246;7.372;2023-04-29T04:59:13;98692.03;;;12.28;90.71
47430;BME280;33181;49.246;7.372;2023-04-29T05:01:38;98698.47;;;12.74;89.18
47430;BME280;33181;49.246;7.372;2023-04-29T05:04:04;98699.81;;;13.08;84.85
47430;BME280;33181;49.246;7.372;2023-04-29T05:06:30;98709.56;;;13.64;82.12
47430;BME280;33181;49.246;7.372;2023-04-29T05:08:56;98709.28;;;14.04;80.59
47430;BME280;33181;49.246;7.372;2023-04-29T05:11:21;98702.41;;;14.11;77.21
47430;BME280;33181;49.246;7.372;2023-04-29T05:13:48;98712.09;;;14.21;76.38
47430;BME280;33181;49.246;7.372;2023-04-29T05:16:14;98707.56;;;14.31;75.82
47430;BME280;33181;49.246;7.372;2023-04-29T05:18:43;98705.41;;;14.54;75.60
47430;BME280;33181;49.246;7.372;2023-04-29T05:21:11;98715.22;;;14.79;74.63
47430;BME280;33181;49.246;7.372;2023-04-29T05:23:37;98716.72;;;15.00;73.36
47430;BME280;33181;49.246;7.372;2023-04-29T05:26:03;98716.22;;;15.22;71.74
47430;BME280;33181;49.246;7.372;2023-04-29T05:28:29;98712.31;;;15.26;71.34
47430;BME280;33181;49.246;7.372;2023-04-29T05:30:55;98712.19;;;15.36;71.66
47430;BME280;33181;49.246;7.372;2023-04-29T05:33:21;98703.53;;;15.78;71.16
47430;BME280;33181;49.246;7.372;2023-04-29T05:35:47;98708.81;;;15.78;69.09
47430;BME280;33181;49.246;7.372;2023-04-29T05:38:13;98709.81;;;15.77;68.70
47430;BME280;33181;49.246;7.372;2023-04-29T05:40:39;98711.69;;;15.59;67.81
47430;BME280;33181;49.246;7.372;2023-04-29T05:43:05;98716.78;;;15.78;68.73
47430;BME280;33181;49.246;7.372;2023-04-29T05:45:31;98712.38;;;15.95;67.29
47430;BME280;33181;49.246;7.372;2023-04-29T05:47:57;98727.06;;;15.81;67.04
47430;BME280;33181;49.246;7.372;2023-04-29T05:50:23;98722.63;;;15.90;67.41
47430;BME280;33181;49.246;7.372;2023-04-29T05:52:49;98728.47;;;15.67;67.27
47430;BME280;33181;49.246;7.372;2023-04-29T05:55:16;98731.41;;;15.64;67.22
47430;BME280;33181;49.246;7.372;2023-04-29T05:57:42;98733.19;;;15.38;66.70
47430;BME280;33181;49.246;7.372;2023-04-29T06:00:09;98733.41;;;15.18;67.73
47430;BME280;33181;49.246;7.372;2023-04-29T06:02:35;98732.44;;;15.01;67.89
47430;BME280;33181;49.246;7.372;2023-04-29T06:05:00;98734.88;;;14.95;69.20
47430;BME280;33181;49.246;7.372;2023-04-29T06:07:26;98739.63;;;14.73;68.92
47430;BME280;33181;49.246;7.372;2023-04-29T06:09:52;98744.91;;;14.91;69.00
47430;BME280;33181;49.246;7.372;2023-04-29T06:12:19;98738.78;;;14.73;68.40
47430;BME280;33181;49.246;7.372;2023-04-29T06:14:44;98744.28;;;14.62;69.06
47430;BME280;33181;49.246;7.372;2023-04-29T06:17:10;98753.91;;;14.80;68.65
47430;BME280;33181;49.246;7.372;2023-04-29T06:19:37;98754.44;;;15.02;68.21
47430;BME280;33181;49.246;7.372;2023-04-29T06:22:03;98763.63;;;15.16;67.17
47430;BME280;33181;49.246;7.372;2023-04-29T06:24:29;98751.59;;;15.21;66.46
47430;BME280;33181;49.246;7.372;2023-04-29T06:26:54;98753.03;;;15.34;65.95
47430;BME280;33181;49.246;7.372;2023-04-29T06:29:20;98760.16;;;15.33;66.64
47430;BME280;33181;49.246;7.372;2023-04-29T06:31:47;98760.50;;;15.38;66.71
47430;BME280;33181;49.246;7.372;2023-04-29T06:34:12;98755.09;;;15.22;66.05
47430;BME280;33181;49.246;7.372;2023-04-29T06:36:38;98760.16;;;15.15;66.99
47430;BME280;33181;49.246;7.372;2023-04-29T06:39:04;98763.84;;;15.22;66.42
47430;BME280;33181;49.246;7.372;2023-04-29T06:41:30;98772.47;;;15.24;66.85
47430;BME280;33181;49.246;7.372;2023-04-29T06:43:57;98776.13;;;15.05;66.29
47430;BME280;33181;49.246;7.372;2023-04-29T06:46:22;98774.59;;;15.03;67.45
47430;BME280;33181;49.246;7.372;2023-04-29T06:48:48;98781.28;;;15.07;66.73
47430;BME280;33181;49.246;7.372;2023-04-29T06:51:14;98783.38;;;15.03;67.98
47430;BME280;33181;49.246;7.372;2023-04-29T06:53:40;98785.09;;;15.13;67.38
47430;BME280;33181;49.246;7.372;2023-04-29T06:56:06;98787.22;;;15.09;66.56
47430;BME280;33181;49.246;7.372;2023-04-29T06:58:32;98786.78;;;15.14;67.01
47430;BME280;33181;49.246;7.372;2023-04-29T07:00:58;98791.06;;;14.97;66.83
47430;BME280;33181;49.246;7.372;2023-04-29T07:03:24;98794.97;;;14.75;67.38
47430;BME280;33181;49.246;7.372;2023-04-29T07:05:50;98797.09;;;14.71;67.23
47430;BME280;33181;49.246;7.372;2023-04-29T07:08:16;98791.19;;;14.59;67.36
47430;BME280;33181;49.246;7.372;2023-04-29T07:10:42;98788.53;;;14.59;68.41
47430;BME280;33181;49.246;7.372;2023-04-29T07:13:08;98795.72;;;14.40;68.08
47430;BME280;33181;49.246;7.372;2023-04-29T07:15:35;98801.47;;;14.35;68.67
47430;BME280;33181;49.246;7.372;2023-04-29T07:18:05;98800.09;;;14.21;68.67
47430;BME280;33181;49.246;7.372;2023-04-29T07:20:31;98808.63;;;14.15;69.41
47430;BME280;33181;49.246;7.372;2023-04-29T07:22:57;98803.50;;;14.13;69.68
47430;BME280;33181;49.246;7.372;2023-04-29T07:25:25;98808.03;;;14.21;69.24
47430;BME280;33181;49.246;7.372;2023-04-29T07:27:51;98816.13;;;14.20;69.16
47430;BME280;33181;49.246;7.372;2023-04-29T07:30:20;98814.72;;;14.25;69.14
47430;BME280;33181;49.246;7.372;2023-04-29T07:32:45;98819.34;;;14.13;69.54
47430;BME280;33181;49.246;7.372;2023-04-29T07:35:11;98822.41;;;14.09;69.57
47430;BME280;33181;49.246;7.372;2023-04-29T07:37:37;98819.75;;;14.19;70.53
47430;BME280;33181;49.246;7.372;2023-04-29T07:40:04;98823.09;;;14.11;69.63
47430;BME280;33181;49.246;7.372;2023-04-29T07:42:30;98828.38;;;14.11;68.91
47430;BME280;33181;49.246;7.372;2023-04-29T07:44:55;98830.69;;;14.24;68.90
47430;BME280;33181;49.246;7.372;2023-04-29T07:47:22;98828.22;;;14.22;69.49
47430;BME280;33181;49.246;7.372;2023-04-29T07:49:47;98834.03;;;14.26;69.30
47430;BME280;33181;49.246;7.372;2023-04-29T07:52:13;98834.03;;;14.26;69.17
47430;BME280;33181;49.246;7.372;2023-04-29T07:54:39;98839.31;;;14.26;69.06
47430;BME280;33181;49.246;7.372;2023-04-29T07:57:05;98840.47;;;14.13;69.33
47430;BME280;33181;49.246;7.372;2023-04-29T07:59:31;98849.22;;;14.14;69.17
47430;BME280;33181;49.246;7.372;2023-04-29T08:01:57;98846.00;;;14.20;69.24
47430;BME280;33181;49.246;7.372;2023-04-29T08:04:23;98850.34;;;14.11;68.63
47430;BME280;33181;49.246;7.372;2023-04-29T08:06:49;98852.56;;;14.16;69.46
47430;BME280;33181;49.246;7.372;2023-04-29T08:09:15;98852.56;;;14.16;69.32
47430;BME280;33181;49.246;7.372;2023-04-29T08:11:42;98857.84;;;14.16;69.46
47430;BME280;33181;49.246;7.372;2023-04-29T08:14:08;98861.34;;;14.07;69.45
47430;BME280;33181;49.246;7.372;2023-04-29T08:16:34;98854.66;;;14.03;70.24
47430;BME280;33181;49.246;7.372;2023-04-29T08:19:00;98856.06;;;14.07;69.76
47430;BME280;33181;49.246;7.372;2023-04-29T08:21:26;98866.88;;;14.13;69.10
47430;BME280;33181;49.246;7.372;2023-04-29T08:23:52;98866.44;;;14.18;69.03
47430;BME280;33181;49.246;7.372;2023-04-29T08:26:20;98869.34;;;14.25;69.58
47430;BME280;33181;49.246;7.372;2023-04-29T08:28:47;98861.38;;;14.44;69.63
47430;BME280;33181;49.246;7.372;2023-04-29T08:31:20;98869.56;;;14.51;69.00
47430;BME280;33181;49.246;7.372;2023-04-29T08:33:47;98864.31;;;14.41;68.07
47430;BME280;33181;49.246;7.372;2023-04-29T08:36:13;98870.16;;;14.35;68.28
47430;BME280;33181;49.246;7.372;2023-04-29T08:38:40;98873.59;;;14.45;68.89
47430;BME280;33181;49.246;7.372;2023-04-29T08:41:09;98881.09;;;14.40;68.74
47430;BME280;33181;49.246;7.372;2023-04-29T08:43:36;98881.41;;;14.37;68.32
47430;BME280;33181;49.246;7.372;2023-04-29T08:46:02;98884.19;;;14.35;68.78
47430;BME280;33181;49.246;7.372;2023-04-29T08:48:29;98879.72;;;14.46;68.62
47430;BME280;33181;49.246;7.372;2023-04-29T08:50:55;98881.38;;;14.56;68.92
47430;BME280;33181;49.246;7.372;2023-04-29T08:53:23;98886.06;;;14.63;69.33
47430;BME280;33181;49.246;7.372;2023-04-29T08:55:49;98892.50;;;14.50;68.80
47430;BME280;33181;49.246;7.372;2023-04-29T08:58:15;98894.19;;;14.42;67.68
47430;BME280;33181;49.246;7.372;2023-04-29T09:00:43;98900.66;;;14.20;68.16
47430;BME280;33181;49.246;7.372;2023-04-29T09:03:41;98896.22;;;14.10;68.91
47430;BME280;33181;49.246;7.372;2023-04-29T09:06:10;98900.13;;;14.16;68.88
47430;BME280;33181;49.246;7.372;2023-04-29T09:08:37;98902.31;;;14.21;68.64
47430;BME280;33181;49.246;7.372;2023-04-29T09:11:07;98908.56;;;14.29;69.08
47430;BME280;33181;49.246;7.372;2023-04-29T09:13:34;98910.38;;;14.29;69.40
47430;BME280;33181;49.246;7.372;2023-04-29T09:15:59;98905.50;;;14.24;69.39
47430;BME280;33181;49.246;7.372;2023-04-29T09:18:49;98909.00;;;14.15;68.97
47430;BME280;33181;49.246;7.372;2023-04-29T09:21:22;98913.88;;;14.20;69.20
47430;BME280;33181;49.246;7.372;2023-04-29T09:23:53;98913.00;;;14.29;69.83
47430;BME280;33181;49.246;7.372;2023-04-29T09:26:20;98914.69;;;14.20;68.94
47430;BME280;33181;49.246;7.372;2023-04-29T09:29:04;98914.66;;;14.30;68.72
47430;BME280;33181;49.246;7.372;2023-04-29T09:31:30;98912.47;;;14.25;67.88
47430;BME280;33181;49.246;7.372;2023-04-29T09:33:56;98918.44;;;14.18;68.17
47430;BME280;33181;49.246;7.372;2023-04-29T09:36:43;98921.34;;;14.24;68.83
47430;BME280;33181;49.246;7.372;2023-04-29T09:39:21;98930.53;;;14.30;68.90
47430;BME280;33181;49.246;7.372;2023-04-29T09:47:05;98924.69;;;14.26;69.17
47430;BME280;33181;49.246;7.372;2023-04-29T09:49:37;98924.28;;;14.21;69.45
47430;BME280;33181;49.246;7.372;2023-04-29T09:52:09;98927.50;;;14.15;69.57
47430;BME280;33181;49.246;7.372;2023-04-29T09:54:37;98924.59;;;14.08;69.21
47430;BME280;33181;49.246;7.372;2023-04-29T09:57:05;98929.72;;;14.20;69.57
47430;BME280;33181;49.246;7.372;2023-04-29T09:59:36;98931.81;;;14.16;69.11
47430;BME280;33181;49.246;7.372;2023-04-29T10:02:16;98932.50;;;14.18;69.39
47430;BME280;33181;49.246;7.372;2023-04-29T10:04:53;98926.50;;;14.26;69.48
47430;BME280;33181;49.246;7.372;2023-04-29T10:07:23;98931.25;;;14.22;68.46
47430;BME280;33181;49.246;7.372;2023-04-29T10:09:50;98930.84;;;14.07;68.43
47430;BME280;33181;49.246;7.372;2023-04-29T10:12:19;98937.41;;;14.03;68.61
47430;BME280;33181;49.246;7.372;2023-04-29T10:17:45;98932.50;;;14.08;68.63
47430;BME280;33181;49.246;7.372;2023-04-29T10:20:23;98937.50;;;14.11;68.58
47430;BME280;33181;49.246;7.372;2023-04-29T10:22:54;98936.56;;;14.12;67.64
47430;BME280;33181;49.246;7.372;2023-04-29T10:25:23;98934.88;;;14.11;67.14
47430;BME280;33181;49.246;7.372;2023-04-29T10:27:51;98937.94;;;14.17;67.38
47430;BME280;33181;49.246;7.372;2023-04-29T10:30:20;98941.94;;;14.21;67.76
47430;BME280;33181;49.246;7.372;2023-04-29T10:32:49;98936.91;;;14.27;68.21
47430;BME280;33181;49.246;7.372;2023-04-29T10:35:19;98934.97;;;14.39;67.17
47430;BME280;33181;49.246;7.372;2023-04-29T10:37:47;98928.66;;;14.50;66.62
47430;BME280;33181;49.246;7.372;2023-04-29T10:40:35;98927.66;;;14.70;66.62
47430;BME280;33181;49.246;7.372;2023-04-29T10:43:03;98929.38;;;14.89;66.28
47430;BME280;33181;49.246;7.372;2023-04-29T10:45:32;98929.81;;;14.47;65.13
47430;BME280;33181;49.246;7.372;2023-04-29T10:53:04;98926.53;;;14.73;64.83
47430;BME280;33181;49.246;7.372;2023-04-29T10:55:33;98928.97;;;14.84;64.32
47430;BME280;33181;49.246;7.372;2023-04-29T10:58:03;98922.44;;;14.78;63.70
47430;BME280;33181;49.246;7.372;2023-04-29T11:00:37;98932.00;;;14.62;65.04
47430;BME280;33181;49.246;7.372;2023-04-29T11:03:05;98931.84;;;14.63;64.79
47430;BME280;33181;49.246;7.372;2023-04-29T11:05:35;98929.75;;;14.67;64.33
47430;BME280;33181;49.246;7.372;2023-04-29T11:08:18;98926.53;;;14.73;63.67
47430;BME280;33181;49.246;7.372;2023-04-29T11:10:52;98925.19;;;14.87;63.56
47430;BME280;33181;49.246;7.372;2023-04-29T11:13:29;98921.03;;;15.12;63.32
47430;BME280;33181;49.246;7.372;2023-04-29T11:16:08;98921.38;;;15.26;62.63
47430;BME280;33181;49.246;7.372;2023-04-29T11:18:35;98917.19;;;15.24;64.96
47430;BME280;33181;49.246;7.372;2023-04-29T11:23:43;98922.44;;;15.34;64.97
47430;BME280;33181;49.246;7.372;2023-04-29T11:26:10;98927.56;;;15.35;62.85
47430;BME280;33181;49.246;7.372;2023-04-29T11:28:36;98930.72;;;15.21;62.43
47430;BME280;33181;49.246;7.372;2023-04-29T11:31:02;98921.50;;;15.25;62.56
47430;BME280;33181;49.246;7.372;2023-04-29T11:33:31;98931.25;;;15.24;62.54
47430;BME280;33181;49.246;7.372;2023-04-29T11:35:57;98931.41;;;15.23;62.63
47430;BME280;33181;49.246;7.372;2023-04-29T11:38:27;98929.44;;;15.25;62.35
47430;BME280;33181;49.246;7.372;2023-04-29T11:40:57;98938.16;;;15.35;63.01
47430;BME280;33181;49.246;7.372;2023-04-29T11:43:24;98938.25;;;15.43;63.54
47430;BME280;33181;49.246;7.372;2023-04-29T11:45:52;98940.44;;;15.30;62.96
47430;BME280;33181;49.246;7.372;2023-04-29T11:48:25;98942.72;;;15.15;63.27
47430;BME280;33181;49.246;7.372;2023-04-29T11:50:58;98948.81;;;14.98;63.71
47430;BME280;33181;49.246;7.372;2023-04-29T11:53:25;98945.94;;;14.81;64.67
47430;BME280;33181;49.246;7.372;2023-04-29T11:55:54;98944.47;;;14.79;64.60
47430;BME280;33181;49.246;7.372;2023-04-29T11:58:21;98949.22;;;14.75;64.60
47430;BME280;33181;49.246;7.372;2023-04-29T12:00:48;98948.50;;;14.73;64.10
47430;BME280;33181;49.246;7.372;2023-04-29T12:03:18;98948.38;;;14.65;64.58
47430;BME280;33181;49.246;7.372;2023-04-29T12:05:51;98944.47;;;14.79;64.76
47430;BME280;33181;49.246;7.372;2023-04-29T12:08:25;98945.53;;;14.86;65.14
47430;BME280;33181;49.246;7.372;2023-04-29T12:10:56;98946.22;;;14.88;64.09
47430;BME280;33181;49.246;7.372;2023-04-29T12:13:24;98943.38;;;14.99;63.93
47430;BME280;33181;49.246;7.372;2023-04-29T12:15:51;98951.19;;;15.01;63.73
47430;BME280;33181;49.246;7.372;2023-04-29T12:18:18;98940.59;;;15.01;63.06
47430;BME280;33181;49.246;7.372;2023-04-29T12:20:45;98944.31;;;15.08;63.81
47430;BME280;33181;49.246;7.372;2023-04-29T12:23:20;98944.03;;;15.11;63.48
47430;BME280;33181;49.246;7.372;2023-04-29T12:25:55;98950.84;;;15.14;63.40
47430;BME280;33181;49.246;7.372;2023-04-29T12:28:22;98949.09;;;15.22;62.79
47430;BME280;33181;49.246;7.372;2023-04-29T12:30:50;98946.84;;;15.27;62.77
47430;BME280;33181;49.246;7.372;2023-04-29T12:33:25;98942.91;;;15.32;62.10
47430;BME280;33181;49.246;7.372;2023-04-29T12:35:54;98949.66;;;15.44;62.20
47430;BME280;33181;49.246;7.372;2023-04-29T12:38:31;98962.09;;;15.61;61.70
47430;BME280;33181;49.246;7.372;2023-04-29T12:41:00;98954.81;;;15.63;60.81
47430;BME280;33181;49.246;7.372;2023-04-29T12:43:32;98956.22;;;15.67;60.84
47430;BME280;33181;49.246;7.372;2023-04-29T12:46:03;98958.72;;;15.69;60.50
47430;BME280;33181;49.246;7.372;2023-04-29T12:48:34;98958.88;;;15.67;60.63
47430;BME280;33181;49.246;7.372;2023-04-29T12:51:02;98957.16;;;15.66;60.17
47430;BME280;33181;49.246;7.372;2023-04-29T12:53:31;98962.81;;;15.53;59.98
47430;BME280;33181;49.246;7.372;2023-04-29T12:55:57;98963.34;;;15.57;60.83
47430;BME280;33181;49.246;7.372;2023-04-29T12:58:23;98962.09;;;15.61;61.47
47430;BME280;33181;49.246;7.372;2023-04-29T13:00:49;98965.09;;;15.66;61.17
47430;BME280;33181;49.246;7.372;2023-04-29T13:03:15;98965.41;;;15.63;61.31
47430;BME280;33181;49.246;7.372;2023-04-29T13:05:41;98965.88;;;15.59;60.61
47430;BME280;33181;49.246;7.372;2023-04-29T13:08:07;98968.66;;;15.57;60.31
47430;BME280;33181;49.246;7.372;2023-04-29T13:10:34;98968.50;;;15.59;61.02
47430;BME280;33181;49.246;7.372;2023-04-29T13:13:00;98971.38;;;15.65;61.28
47430;BME280;33181;49.246;7.372;2023-04-29T13:15:26;98972.38;;;15.64;61.12
47430;BME280;33181;49.246;7.372;2023-04-29T13:17:52;98968.47;;;15.68;60.61
47430;BME280;33181;49.246;7.372;2023-04-29T13:20:21;98974.38;;;15.80;60.67
47430;BME280;33181;49.246;7.372;2023-04-29T13:22:47;98973.31;;;15.91;59.88
47430;BME280;33181;49.246;7.372;2023-04-29T13:25:13;98969.63;;;15.84;59.18
47430;BME280;33181;49.246;7.372;2023-04-29T13:27:40;98970.28;;;15.68;60.97
47430;BME280;33181;49.246;7.372;2023-04-29T13:30:07;98973.34;;;15.63;60.69